createdAt,value
2023-02-11T00:02:47.893Z,99262.38
2023-02-11T00:07:50.179Z,99236.53
2023-02-11T00:12:52.204Z,99244.13
2023-02-11T00:17:54.305Z,99245.19
2023-02-11T00:22:56.419Z,99260.16
2023-02-11T00:27:59.113Z,99269.03
2023-02-11T00:33:01.202Z,99261.78
2023-02-11T00:38:03.214Z,99256.47
2023-02-11T00:43:06.693Z,99251.56
2023-02-11T00:48:08.714Z,99253.56
2023-02-11T00:53:11.101Z,99257.22
2023-02-11T00:58:13.939Z,99276.16
2023-02-11T01:03:17.635Z,99265.03
2023-02-11T01:08:19.977Z,99273.41
2023-02-11T01:13:22.801Z,99270.44
2023-02-11T01:18:25.684Z,99284.13
2023-02-11T01:23:27.721Z,99300.31
2023-02-11T01:28:31.200Z,99277.03
2023-02-11T01:33:35.310Z,99285.13
2023-02-11T01:38:38.118Z,99283.97
2023-02-11T01:43:47.480Z,99293.16
2023-02-11T01:49:20.444Z,99294.63
2023-02-11T01:54:48.298Z,99279.97
2023-02-11T02:00:06.179Z,99291.84
2023-02-11T02:05:42.438Z,99299.03
2023-02-11T02:10:47.236Z,99300.31
2023-02-11T02:15:59.614Z,99291.78
2023-02-11T02:21:20.462Z,99299.69
2023-02-11T02:27:00.698Z,99296.03
2023-02-11T02:32:36.605Z,99292.78
2023-02-11T02:38:04.353Z,99294.00
2023-02-11T02:43:09.569Z,99302.19
2023-02-11T02:48:29.968Z,99299.97
2023-02-11T02:53:55.151Z,99302.47
2023-02-11T02:59:17.361Z,99281.94
2023-02-11T03:04:29.850Z,99295.34
2023-02-11T03:09:55.991Z,99291.44
2023-02-11T03:14:59.898Z,99284.56
2023-02-11T03:20:04.440Z,99290.09
2023-02-11T03:25:07.288Z,99293.66
2023-02-11T03:30:41.795Z,99295.53
2023-02-11T03:35:54.241Z,99285.44
2023-02-11T03:40:58.022Z,99287.47
2023-02-11T03:46:01.779Z,99291.50
2023-02-11T03:51:07.352Z,99275.97
2023-02-11T03:56:14.850Z,99280.03
2023-02-11T04:01:17.281Z,99276.19
2023-02-11T04:06:19.304Z,99275.47
2023-02-11T04:11:21.317Z,99283.06
2023-02-11T04:16:23.538Z,99276.31
2023-02-11T04:21:25.640Z,99279.00
2023-02-11T04:26:27.676Z,99271.81
2023-02-11T04:31:29.769Z,99268.06
2023-02-11T04:36:31.887Z,99255.47
2023-02-11T04:41:34.242Z,99272.81
2023-02-11T04:46:36.242Z,99274.16
2023-02-11T04:51:38.462Z,99260.69
2023-02-11T04:56:40.488Z,99273.47
2023-02-11T05:01:43.091Z,99280.66
2023-02-11T05:06:45.151Z,99278.06
2023-02-11T05:11:47.237Z,99274.22
2023-02-11T05:16:49.338Z,99250.09
2023-02-11T05:22:02.119Z,99281.72
2023-02-11T05:27:04.904Z,99259.78
2023-02-11T05:32:09.061Z,99277.50
2023-02-11T05:37:11.115Z,99270.59
2023-02-11T05:42:14.136Z,99266.69
2023-02-11T05:47:16.107Z,99272.88
2023-02-11T05:52:18.088Z,99266.63
2023-02-11T05:57:20.212Z,99267.88
2023-02-11T06:02:23.218Z,99270.88
2023-02-11T06:07:25.289Z,99256.31
2023-02-11T06:12:27.377Z,99281.72
2023-02-11T06:17:33.718Z,99255.53
2023-02-11T06:22:35.799Z,99281.38
2023-02-11T06:27:38.376Z,99262.19
2023-02-11T06:32:44.509Z,99268.97
2023-02-11T06:37:48.102Z,99261.72
2023-02-11T06:42:50.179Z,99269.59
2023-02-11T06:47:54.014Z,99265.19
2023-02-11T06:52:56.006Z,99261.06
2023-02-11T06:57:58.053Z,99262.16
2023-02-11T07:03:01.109Z,99273.06
2023-02-11T07:08:03.201Z,99263.19
2023-02-11T07:13:05.393Z,99278.59
2023-02-11T07:18:07.483Z,99276.56
2023-02-11T07:23:09.670Z,99267.81
2023-02-11T07:28:11.984Z,99250.72
2023-02-11T07:33:14.009Z,99234.31
2023-02-11T07:38:16.038Z,99235.25
2023-02-11T07:43:17.878Z,99247.09
2023-02-11T07:48:19.865Z,99228.91
2023-02-11T07:53:21.931Z,99237.50
2023-02-11T07:58:23.939Z,99234.03
2023-02-11T08:03:25.808Z,99224.66
2023-02-11T08:08:28.131Z,99217.91
2023-02-11T08:13:30.227Z,99219.44
2023-02-11T08:18:33.456Z,99222.00
2023-02-11T08:23:40.269Z,99224.28
2023-02-11T08:28:44.013Z,99212.16
2023-02-11T08:33:46.336Z,99204.69
2023-02-11T08:38:48.401Z,99199.66
2023-02-11T08:43:50.426Z,99187.25
2023-02-11T08:48:52.953Z,99188.28
2023-02-11T08:53:55.499Z,99202.28
2023-02-11T08:58:57.713Z,99167.34
2023-02-11T09:03:59.853Z,99159.34
2023-02-11T09:09:01.891Z,99132.41
2023-02-11T09:14:04.732Z,99121.59
2023-02-11T09:19:06.804Z,99117.19
2023-02-11T09:24:08.961Z,99078.13
2023-02-11T09:29:11.201Z,99105.63
2023-02-11T09:34:13.522Z,99108.56
2023-02-11T09:39:20.604Z,99054.81
2023-02-11T09:44:26.445Z,99056.44
2023-02-11T09:49:44.106Z,99057.53
2023-02-11T09:54:55.751Z,99049.56
2023-02-11T09:59:58.107Z,99056.31
2023-02-11T10:05:35.494Z,99068.84
2023-02-11T10:11:04.350Z,99021.69
2023-02-11T10:16:17.171Z,99012.31
2023-02-11T10:21:41.666Z,99013.50
2023-02-11T10:26:45.684Z,99033.88
2023-02-11T10:31:49.995Z,99007.56
2023-02-11T10:36:52.069Z,98976.78
2023-02-11T10:42:03.228Z,98977.88
2023-02-11T10:47:22.868Z,98968.13
2023-02-11T10:52:27.257Z,98961.06
2023-02-11T10:57:31.889Z,98947.13
2023-02-11T11:02:38.887Z,98952.00
2023-02-11T11:07:59.461Z,98933.63
2023-02-11T11:13:01.747Z,98937.50
2023-02-11T11:18:23.020Z,98910.19
2023-02-11T11:23:26.132Z,98901.66
2023-02-11T11:28:31.649Z,98868.28
2023-02-11T11:33:35.890Z,98867.88
2023-02-11T11:38:45.918Z,98856.22
2023-02-11T11:44:15.533Z,98849.25
2023-02-11T11:49:43.634Z,98833.00
2023-02-11T11:54:56.405Z,98824.63
2023-02-11T11:59:58.733Z,98807.28
2023-02-11T12:05:29.928Z,98808.19
2023-02-11T12:10:37.723Z,98817.44
2023-02-11T12:16:14.463Z,98817.78
2023-02-11T12:21:33.478Z,98778.03
2023-02-11T12:26:59.998Z,98777.41
2023-02-11T12:32:14.238Z,98766.16
2023-02-11T12:37:21.181Z,98806.41
2023-02-11T12:42:50.663Z,98769.97
2023-02-11T12:48:05.695Z,98756.75
2023-02-11T12:53:22.940Z,98738.34
2023-02-11T12:58:44.187Z,98711.63
2023-02-11T13:04:00.298Z,98725.88
2023-02-11T13:09:06.367Z,98739.84
2023-02-11T13:14:38.001Z,98692.31
2023-02-11T13:19:53.446Z,98674.75
2023-02-11T13:25:07.496Z,98652.63
2023-02-11T13:30:28.188Z,98659.09
2023-02-11T13:35:37.816Z,98616.25
2023-02-11T13:40:40.211Z,98639.84
2023-02-11T13:45:45.211Z,98614.53
2023-02-11T13:50:51.875Z,98582.81
2023-02-11T13:56:07.955Z,98585.97
2023-02-11T14:01:10.086Z,98592.94
2023-02-11T14:06:32.441Z,98571.69
2023-02-11T14:11:35.329Z,98538.44
2023-02-11T14:17:02.713Z,98546.44
2023-02-11T14:22:12.028Z,98500.59
2023-02-11T14:27:24.048Z,98496.47
2023-02-11T14:33:02.970Z,98462.59
2023-02-11T14:38:31.885Z,98469.28
2023-02-11T14:43:46.995Z,98435.97
2023-02-11T14:48:52.404Z,98442.28
2023-02-11T14:54:17.231Z,98417.88
2023-02-11T14:59:21.707Z,98400.72
2023-02-11T15:04:32.950Z,98420.63
2023-02-11T15:09:43.153Z,98430.22
2023-02-11T15:14:51.074Z,98374.25
2023-02-11T15:19:56.980Z,98380.97
2023-02-11T15:25:04.201Z,98350.78
2023-02-11T15:30:23.830Z,98385.50
2023-02-11T15:35:35.251Z,98390.28
2023-02-11T15:40:37.831Z,98343.00
2023-02-11T15:45:43.731Z,98355.19
2023-02-11T15:50:56.049Z,98319.63
2023-02-11T15:56:01.450Z,98317.84
2023-02-11T16:01:03.880Z,98317.44
2023-02-11T16:06:15.896Z,98265.91
2023-02-11T16:11:36.270Z,98298.50
2023-02-11T16:16:38.443Z,98295.34
2023-02-11T16:21:45.434Z,98285.19
2023-02-11T16:26:50.784Z,98256.66
2023-02-11T16:31:55.168Z,98245.72
2023-02-11T16:36:57.256Z,98248.06
2023-02-11T16:41:59.811Z,98244.31
2023-02-11T16:47:03.768Z,98273.41
2023-02-11T16:52:08.566Z,98213.59
2023-02-11T16:57:22.719Z,98214.81
2023-02-11T17:02:31.327Z,98205.47
2023-02-11T17:07:33.727Z,98199.31
2023-02-11T17:12:35.712Z,98185.88
2023-02-11T17:17:37.905Z,98185.88
2023-02-11T17:22:40.267Z,98169.09
2023-02-11T17:27:42.377Z,98162.66
2023-02-11T17:32:44.549Z,98157.78
2023-02-11T17:37:46.636Z,98170.69
2023-02-11T17:42:48.714Z,98125.94
2023-02-11T17:47:50.745Z,98129.06
2023-02-11T17:52:52.818Z,98133.78
2023-02-11T17:57:55.625Z,98097.91
2023-02-11T18:03:06.419Z,98088.75
2023-02-11T18:08:08.625Z,98096.28
2023-02-11T18:13:10.657Z,98071.03
2023-02-11T18:18:12.780Z,98057.59
2023-02-11T18:23:14.841Z,98051.50
2023-02-11T18:28:16.906Z,98030.13
2023-02-11T18:33:18.910Z,98011.41
2023-02-11T18:38:22.405Z,98001.72
2023-02-11T18:43:24.748Z,97976.53
2023-02-11T18:48:27.565Z,98006.25
2023-02-11T18:53:29.618Z,98010.66
2023-02-11T18:58:31.629Z,97993.56
2023-02-11T19:03:33.665Z,97983.97
2023-02-11T19:08:35.862Z,97974.72
2023-02-11T19:13:38.237Z,97968.81
2023-02-11T19:18:40.525Z,97959.41
2023-02-11T19:23:42.568Z,97970.47
2023-02-11T19:28:45.000Z,97959.88
2023-02-11T19:33:47.381Z,97931.50
2023-02-11T19:38:49.410Z,97959.75
2023-02-11T19:43:53.087Z,97937.00
2023-02-11T19:48:55.631Z,97909.25
2023-02-11T19:53:58.837Z,97924.13
2023-02-11T19:59:02.930Z,97909.81
2023-02-11T20:04:05.831Z,97923.81
2023-02-11T20:09:11.927Z,97899.06
2023-02-11T20:14:15.404Z,97903.44
2023-02-11T20:19:20.196Z,97885.38
2023-02-11T20:24:23.413Z,97879.50
2023-02-11T20:29:26.062Z,97862.19
2023-02-11T20:34:28.175Z,97862.69
2023-02-11T20:39:30.273Z,97859.78
2023-02-11T20:44:32.320Z,97871.38
2023-02-11T20:49:34.327Z,97885.59
2023-02-11T20:54:36.323Z,97874.78
2023-02-11T20:59:38.480Z,97855.69
2023-02-11T21:04:40.646Z,97845.59
2023-02-11T21:09:42.781Z,97862.75
2023-02-11T21:14:44.817Z,97850.50
2023-02-11T21:19:47.007Z,97861.94
2023-02-11T21:24:49.204Z,97852.47
2023-02-11T21:29:54.548Z,97856.09
2023-02-11T21:34:56.963Z,97855.59
2023-02-11T21:39:59.064Z,97855.09
2023-02-11T21:45:01.140Z,97847.75
2023-02-11T21:50:03.815Z,97844.81
2023-02-11T21:55:06.697Z,97839.13
2023-02-11T22:00:09.805Z,97838.81
2023-02-11T22:05:11.871Z,97828.34
2023-02-11T22:10:14.439Z,97829.84
2023-02-11T22:15:16.720Z,97828.84
2023-02-11T22:20:18.900Z,97829.84
2023-02-11T22:25:21.001Z,97828.84
2023-02-11T22:30:23.053Z,97826.56
2023-02-11T22:35:25.143Z,97829.66
2023-02-11T22:40:27.184Z,97821.34
2023-02-11T22:45:29.306Z,97822.34
2023-02-11T22:50:31.503Z,97833.44
2023-02-11T22:55:38.182Z,97842.91
2023-02-11T23:00:41.554Z,97840.13
2023-02-11T23:05:43.674Z,97850.13
2023-02-11T23:10:46.461Z,97852.91
2023-02-11T23:15:48.514Z,97855.00
2023-02-11T23:20:50.618Z,97850.75
2023-02-11T23:25:52.898Z,97864.66
2023-02-11T23:30:55.667Z,97863.34
2023-02-11T23:35:57.717Z,97869.06
2023-02-11T23:40:59.757Z,97870.06
2023-02-11T23:46:01.909Z,97878.41
2023-02-11T23:51:04.517Z,97891.97
2023-02-11T23:56:13.530Z,97899.66
